sensor_id;sensor_type;location;lat;lon;timestamp;P1;durP1;ratioP1;P2;durP2;ratioP2
52414;SDS011;38340;52.964;6.086;2023-04-01T00:00:16;8.93;;;8.02;;
52414;SDS011;38340;52.964;6.086;2023-04-01T00:02:42;8.98;;;8.07;;
52414;SDS011;38340;52.964;6.086;2023-04-01T00:05:09;9.93;;;8.43;;
52414;SDS011;38340;52.964;6.086;2023-04-01T00:07:35;8.88;;;7.97;;
52414;SDS011;38340;52.964;6.086;2023-04-01T00:10:02;8.52;;;7.72;;
52414;SDS011;38340;52.964;6.086;2023-04-01T00:12:29;8.63;;;7.82;;
52414;SDS011;38340;52.964;6.086;2023-04-01T00:14:55;8.75;;;7.90;;
52414;SDS011;38340;52.964;6.086;2023-04-01T00:17:21;9.02;;;8.13;;
52414;SDS011;38340;52.964;6.086;2023-04-01T00:19:47;7.97;;;7.18;;
52414;SDS011;38340;52.964;6.086;2023-04-01T00:22:13;8.00;;;7.20;;
52414;SDS011;38340;52.964;6.086;2023-04-01T00:24:38;8.82;;;7.88;;
52414;SDS011;38340;52.964;6.086;2023-04-01T00:27:04;9.27;;;8.00;;
52414;SDS011;38340;52.964;6.086;2023-04-01T00:29:30;8.30;;;7.18;;
52414;SDS011;38340;52.964;6.086;2023-04-01T00:31:57;7.53;;;6.82;;
52414;SDS011;38340;52.964;6.086;2023-04-01T00:34:23;8.15;;;7.35;;
52414;SDS011;38340;52.964;6.086;2023-04-01T00:36:49;8.68;;;7.10;;
52414;SDS011;38340;52.964;6.086;2023-04-01T00:39:17;7.43;;;6.50;;
52414;SDS011;38340;52.964;6.086;2023-04-01T00:41:43;8.27;;;7.45;;
52414;SDS011;38340;52.964;6.086;2023-04-01T00:47:02;7.05;;;6.30;;
52414;SDS011;38340;52.964;6.086;2023-04-01T00:49:32;6.93;;;6.22;;
52414;SDS011;38340;52.964;6.086;2023-04-01T00:52:02;6.65;;;6.03;;
52414;SDS011;38340;52.964;6.086;2023-04-01T00:54:29;6.55;;;5.95;;
52414;SDS011;38340;52.964;6.086;2023-04-01T00:57:05;6.78;;;6.15;;
52414;SDS011;38340;52.964;6.086;2023-04-01T00:59:41;8.95;;;6.90;;
52414;SDS011;38340;52.964;6.086;2023-04-01T01:02:09;7.20;;;6.60;;
52414;SDS011;38340;52.964;6.086;2023-04-01T01:04:36;7.10;;;6.40;;
52414;SDS011;38340;52.964;6.086;2023-04-01T01:07:06;7.20;;;6.38;;
52414;SDS011;38340;52.964;6.086;2023-04-01T01:15:37;7.10;;;6.40;;
52414;SDS011;38340;52.964;6.086;2023-04-01T01:37:44;7.30;;;6.60;;
52414;SDS011;38340;52.964;6.086;2023-04-01T01:40:12;9.02;;;7.35;;
52414;SDS011;38340;52.964;6.086;2023-04-01T01:42:42;8.50;;;7.30;;
52414;SDS011;38340;52.964;6.086;2023-04-01T01:45:11;9.15;;;7.18;;
52414;SDS011;38340;52.964;6.086;2023-04-01T01:47:39;11.95;;;7.75;;
52414;SDS011;38340;52.964;6.086;2023-04-01T01:50:06;7.80;;;7.00;;
52414;SDS011;38340;52.964;6.086;2023-04-01T01:52:34;9.65;;;7.20;;
52414;SDS011;38340;52.964;6.086;2023-04-01T01:55:00;8.52;;;7.63;;
52414;SDS011;38340;52.964;6.086;2023-04-01T01:57:29;8.98;;;6.93;;
52414;SDS011;38340;52.964;6.086;2023-04-01T02:00:05;9.48;;;7.72;;
52414;SDS011;38340;52.964;6.086;2023-04-01T02:02:45;10.43;;;7.65;;
52414;SDS011;38340;52.964;6.086;2023-04-01T02:05:17;9.70;;;7.82;;
52414;SDS011;38340;52.964;6.086;2023-04-01T02:08:02;9.45;;;7.28;;
52414;SDS011;38340;52.964;6.086;2023-04-01T02:10:34;8.48;;;7.53;;
52414;SDS011;38340;52.964;6.086;2023-04-01T02:13:04;7.35;;;6.50;;
52414;SDS011;38340;52.964;6.086;2023-04-01T02:15:40;7.93;;;7.00;;
52414;SDS011;38340;52.964;6.086;2023-04-01T02:18:10;7.05;;;6.35;;
52414;SDS011;38340;52.964;6.086;2023-04-01T02:20:38;7.95;;;6.82;;
52414;SDS011;38340;52.964;6.086;2023-04-01T02:23:04;8.48;;;7.45;;
52414;SDS011;38340;52.964;6.086;2023-04-01T02:25:33;7.35;;;6.65;;
52414;SDS011;38340;52.964;6.086;2023-04-01T02:28:01;7.88;;;6.70;;
52414;SDS011;38340;52.964;6.086;2023-04-01T02:30:29;7.78;;;6.63;;
52414;SDS011;38340;52.964;6.086;2023-04-01T02:32:57;6.05;;;5.28;;
52414;SDS011;38340;52.964;6.086;2023-04-01T02:35:23;6.82;;;5.20;;
52414;SDS011;38340;52.964;6.086;2023-04-01T02:37:51;4.60;;;4.20;;
52414;SDS011;38340;52.964;6.086;2023-04-01T02:40:18;5.03;;;4.63;;
52414;SDS011;38340;52.964;6.086;2023-04-01T02:42:45;25.27;;;5.70;;
52414;SDS011;38340;52.964;6.086;2023-04-01T02:45:11;4.38;;;3.97;;
52414;SDS011;38340;52.964;6.086;2023-04-01T02:47:38;4.55;;;4.15;;
52414;SDS011;38340;52.964;6.086;2023-04-01T02:50:04;4.93;;;4.20;;
52414;SDS011;38340;52.964;6.086;2023-04-01T02:52:31;4.55;;;3.90;;
52414;SDS011;38340;52.964;6.086;2023-04-01T02:54:57;4.60;;;4.20;;
52414;SDS011;38340;52.964;6.086;2023-04-01T02:57:23;4.50;;;4.10;;
52414;SDS011;38340;52.964;6.086;2023-04-01T02:59:49;3.92;;;3.63;;
52414;SDS011;38340;52.964;6.086;2023-04-01T03:02:15;4.57;;;4.18;;
52414;SDS011;38340;52.964;6.086;2023-04-01T03:04:41;4.50;;;4.10;;
52414;SDS011;38340;52.964;6.086;2023-04-01T03:07:08;4.35;;;3.95;;
52414;SDS011;38340;52.964;6.086;2023-04-01T03:09:37;5.75;;;4.07;;
52414;SDS011;38340;52.964;6.086;2023-04-01T03:12:03;4.55;;;4.15;;
52414;SDS011;38340;52.964;6.086;2023-04-01T03:14:29;6.63;;;4.55;;
52414;SDS011;38340;52.964;6.086;2023-04-01T03:16:55;4.63;;;4.20;;
52414;SDS011;38340;52.964;6.086;2023-04-01T03:19:20;4.80;;;4.40;;
52414;SDS011;38340;52.964;6.086;2023-04-01T03:21:46;4.95;;;4.45;;
52414;SDS011;38340;52.964;6.086;2023-04-01T03:24:12;4.38;;;3.97;;
52414;SDS011;38340;52.964;6.086;2023-04-01T03:26:37;4.80;;;4.30;;
52414;SDS011;38340;52.964;6.086;2023-04-01T03:29:03;5.03;;;4.40;;
52414;SDS011;38340;52.964;6.086;2023-04-01T03:31:30;4.70;;;4.30;;
52414;SDS011;38340;52.964;6.086;2023-04-01T03:33:55;5.65;;;4.63;;
52414;SDS011;38340;52.964;6.086;2023-04-01T03:36:21;5.20;;;4.70;;
52414;SDS011;38340;52.964;6.086;2023-04-01T03:38:47;4.88;;;4.32;;
52414;SDS011;38340;52.964;6.086;2023-04-01T03:41:16;5.15;;;4.65;;
52414;SDS011;38340;52.964;6.086;2023-04-01T03:43:43;5.53;;;4.85;;
52414;SDS011;38340;52.964;6.086;2023-04-01T03:46:09;5.55;;;4.95;;
52414;SDS011;38340;52.964;6.086;2023-04-01T03:48:35;5.75;;;4.65;;
52414;SDS011;38340;52.964;6.086;2023-04-01T03:51:01;5.90;;;5.30;;
52414;SDS011;38340;52.964;6.086;2023-04-01T03:53:26;6.20;;;5.20;;
52414;SDS011;38340;52.964;6.086;2023-04-01T03:55:52;5.70;;;5.20;;
52414;SDS011;38340;52.964;6.086;2023-04-01T03:58:18;7.57;;;5.13;;
52414;SDS011;38340;52.964;6.086;2023-04-01T04:00:44;5.60;;;4.75;;
52414;SDS011;38340;52.964;6.086;2023-04-01T04:03:10;5.75;;;5.25;;
52414;SDS011;38340;52.964;6.086;2023-04-01T04:05:36;6.05;;;5.45;;
52414;SDS011;38340;52.964;6.086;2023-04-01T04:08:02;6.18;;;5.30;;
52414;SDS011;38340;52.964;6.086;2023-04-01T04:10:28;5.85;;;5.25;;
52414;SDS011;38340;52.964;6.086;2023-04-01T04:12:54;7.07;;;5.28;;
52414;SDS011;38340;52.964;6.086;2023-04-01T04:15:20;5.63;;;5.13;;
52414;SDS011;38340;52.964;6.086;2023-04-01T04:17:47;5.32;;;4.82;;
52414;SDS011;38340;52.964;6.086;2023-04-01T04:20:13;4.90;;;4.40;;
52414;SDS011;38340;52.964;6.086;2023-04-01T04:22:39;4.80;;;4.22;;
52414;SDS011;38340;52.964;6.086;2023-04-01T04:25:05;6.15;;;5.00;;
52414;SDS011;38340;52.964;6.086;2023-04-01T04:27:31;5.60;;;5.00;;
52414;SDS011;38340;52.964;6.086;2023-04-01T04:29:57;5.25;;;4.75;;
52414;SDS011;38340;52.964;6.086;2023-04-01T04:32:23;5.50;;;4.93;;
52414;SDS011;38340;52.964;6.086;2023-04-01T04:34:49;5.60;;;5.10;;
52414;SDS011;38340;52.964;6.086;2023-04-01T04:37:15;6.50;;;5.43;;
52414;SDS011;38340;52.964;6.086;2023-04-01T04:39:40;6.28;;;5.68;;
52414;SDS011;38340;52.964;6.086;2023-04-01T04:42:06;6.10;;;5.43;;
52414;SDS011;38340;52.964;6.086;2023-04-01T04:44:32;5.72;;;5.05;;
52414;SDS011;38340;52.964;6.086;2023-04-01T04:46:57;9.77;;;5.45;;
52414;SDS011;38340;52.964;6.086;2023-04-01T04:49:23;6.30;;;5.20;;
52414;SDS011;38340;52.964;6.086;2023-04-01T04:51:49;6.82;;;5.32;;
52414;SDS011;38340;52.964;6.086;2023-04-01T04:54:15;5.93;;;5.10;;
52414;SDS011;38340;52.964;6.086;2023-04-01T04:56:41;9.25;;;6.50;;
52414;SDS011;38340;52.964;6.086;2023-04-01T04:59:06;8.73;;;6.35;;
52414;SDS011;38340;52.964;6.086;2023-04-01T05:01:32;8.77;;;7.40;;
52414;SDS011;38340;52.964;6.086;2023-04-01T05:03:58;11.25;;;7.88;;
52414;SDS011;38340;52.964;6.086;2023-04-01T05:06:24;12.60;;;8.98;;
52414;SDS011;38340;52.964;6.086;2023-04-01T05:08:50;15.80;;;10.68;;
52414;SDS011;38340;52.964;6.086;2023-04-01T05:11:17;14.35;;;10.32;;
52414;SDS011;38340;52.964;6.086;2023-04-01T05:13:44;18.58;;;11.68;;
52414;SDS011;38340;52.964;6.086;2023-04-01T05:16:11;16.55;;;11.65;;
52414;SDS011;38340;52.964;6.086;2023-04-01T05:18:39;15.07;;;11.73;;
52414;SDS011;38340;52.964;6.086;2023-04-01T05:21:06;19.25;;;11.90;;
52414;SDS011;38340;52.964;6.086;2023-04-01T05:23:33;16.55;;;12.23;;
52414;SDS011;38340;52.964;6.086;2023-04-01T05:26:02;20.58;;;12.70;;
52414;SDS011;38340;52.964;6.086;2023-04-01T05:28:29;19.13;;;13.27;;
52414;SDS011;38340;52.964;6.086;2023-04-01T05:30:54;16.70;;;12.30;;
52414;SDS011;38340;52.964;6.086;2023-04-01T05:33:22;18.05;;;12.80;;
52414;SDS011;38340;52.964;6.086;2023-04-01T05:35:48;18.58;;;13.60;;
52414;SDS011;38340;52.964;6.086;2023-04-01T05:38:14;16.83;;;11.85;;
52414;SDS011;38340;52.964;6.086;2023-04-01T05:40:40;17.65;;;12.40;;
52414;SDS011;38340;52.964;6.086;2023-04-01T05:43:05;21.70;;;13.10;;
52414;SDS011;38340;52.964;6.086;2023-04-01T05:45:31;35.83;;;13.90;;
52414;SDS011;38340;52.964;6.086;2023-04-01T05:47:56;20.80;;;12.15;;
52414;SDS011;38340;52.964;6.086;2023-04-01T05:50:23;24.52;;;12.38;;
52414;SDS011;38340;52.964;6.086;2023-04-01T05:52:49;24.05;;;13.30;;
52414;SDS011;38340;52.964;6.086;2023-04-01T05:55:15;27.83;;;12.95;;
52414;SDS011;38340;52.964;6.086;2023-04-01T05:57:40;111.40;;;28.40;;
52414;SDS011;38340;52.964;6.086;2023-04-01T06:00:06;85.53;;;19.92;;
52414;SDS011;38340;52.964;6.086;2023-04-01T06:02:32;27.23;;;12.25;;
52414;SDS011;38340;52.964;6.086;2023-04-01T06:07:39;56.00;;;14.82;;
52414;SDS011;38340;52.964;6.086;2023-04-01T06:10:12;17.25;;;11.65;;
52414;SDS011;38340;52.964;6.086;2023-04-01T06:12:45;38.92;;;13.23;;
52414;SDS011;38340;52.964;6.086;2023-04-01T06:15:28;41.63;;;12.55;;
52414;SDS011;38340;52.964;6.086;2023-04-01T06:33:39;25.77;;;10.77;;
52414;SDS011;38340;52.964;6.086;2023-04-01T06:52:47;60.42;;;11.90;;
52414;SDS011;38340;52.964;6.086;2023-04-01T06:58:25;13.13;;;9.00;;
52414;SDS011;38340;52.964;6.086;2023-04-01T07:00:59;11.32;;;8.50;;
52414;SDS011;38340;52.964;6.086;2023-04-01T07:03:36;12.93;;;8.75;;
52414;SDS011;38340;52.964;6.086;2023-04-01T07:08:57;11.23;;;8.73;;
52414;SDS011;38340;52.964;6.086;2023-04-01T07:11:29;23.13;;;14.02;;
52414;SDS011;38340;52.964;6.086;2023-04-01T07:16:33;16.98;;;9.50;;
52414;SDS011;38340;52.964;6.086;2023-04-01T07:19:06;12.60;;;9.02;;
52414;SDS011;38340;52.964;6.086;2023-04-01T07:21:40;5.38;;;4.88;;
52414;SDS011;38340;52.964;6.086;2023-04-01T07:24:24;5.97;;;5.40;;
52414;SDS011;38340;52.964;6.086;2023-04-01T07:26:59;5.97;;;4.95;;
52414;SDS011;38340;52.964;6.086;2023-04-01T07:29:25;5.35;;;4.85;;
52414;SDS011;38340;52.964;6.086;2023-04-01T07:34:27;8.00;;;6.35;;
52414;SDS011;38340;52.964;6.086;2023-04-01T07:42:49;12.93;;;9.63;;
52414;SDS011;38340;52.964;6.086;2023-04-01T07:45:23;12.38;;;9.82;;
52414;SDS011;38340;52.964;6.086;2023-04-01T07:50:49;12.40;;;9.88;;
52414;SDS011;38340;52.964;6.086;2023-04-01T07:56:10;14.50;;;11.23;;
52414;SDS011;38340;52.964;6.086;2023-04-01T07:58:48;14.82;;;11.43;;
52414;SDS011;38340;52.964;6.086;2023-04-01T08:04:39;14.07;;;10.73;;
52414;SDS011;38340;52.964;6.086;2023-04-01T08:07:20;14.80;;;12.00;;
52414;SDS011;38340;52.964;6.086;2023-04-01T08:26:36;18.10;;;14.93;;
52414;SDS011;38340;52.964;6.086;2023-04-01T08:29:15;18.10;;;13.85;;
52414;SDS011;38340;52.964;6.086;2023-04-01T08:32:18;18.10;;;14.45;;
52414;SDS011;38340;52.964;6.086;2023-04-01T08:34:53;16.75;;;13.70;;
52414;SDS011;38340;52.964;6.086;2023-04-01T08:37:32;17.27;;;13.75;;
52414;SDS011;38340;52.964;6.086;2023-04-01T08:40:05;18.10;;;14.82;;
52414;SDS011;38340;52.964;6.086;2023-04-01T08:51:48;23.38;;;16.77;;
52414;SDS011;38340;52.964;6.086;2023-04-01T09:09:23;19.27;;;14.80;;
52414;SDS011;38340;52.964;6.086;2023-04-01T09:20:26;23.00;;;14.85;;
52414;SDS011;38340;52.964;6.086;2023-04-01T09:23:15;21.38;;;15.77;;
52414;SDS011;38340;52.964;6.086;2023-04-01T09:26:10;22.02;;;15.02;;
52414;SDS011;38340;52.964;6.086;2023-04-01T09:31:52;20.73;;;15.48;;
52414;SDS011;38340;52.964;6.086;2023-04-01T09:34:52;18.60;;;14.43;;
52414;SDS011;38340;52.964;6.086;2023-04-01T09:40:21;18.48;;;14.35;;
52414;SDS011;38340;52.964;6.086;2023-04-01T09:43:27;19.60;;;15.95;;
52414;SDS011;38340;52.964;6.086;2023-04-01T09:46:34;18.30;;;13.82;;
52414;SDS011;38340;52.964;6.086;2023-04-01T09:52:05;21.10;;;15.40;;
52414;SDS011;38340;52.964;6.086;2023-04-01T10:05:37;19.50;;;14.65;;
52414;SDS011;38340;52.964;6.086;2023-04-01T10:38:46;10.63;;;9.38;;
52414;SDS011;38340;52.964;6.086;2023-04-01T11:36:41;11.50;;;10.35;;
52414;SDS011;38340;52.964;6.086;2023-04-01T11:56:02;7.88;;;7.18;;
52414;SDS011;38340;52.964;6.086;2023-04-01T12:01:31;7.65;;;6.85;;
52414;SDS011;38340;52.964;6.086;2023-04-01T12:07:02;8.50;;;6.93;;
52414;SDS011;38340;52.964;6.086;2023-04-01T12:12:29;6.72;;;6.10;;
52414;SDS011;38340;52.964;6.086;2023-04-01T12:15:18;6.80;;;6.20;;
52414;SDS011;38340;52.964;6.086;2023-04-01T12:17:51;7.13;;;6.53;;
52414;SDS011;38340;52.964;6.086;2023-04-01T12:25:50;7.25;;;6.55;;
52414;SDS011;38340;52.964;6.086;2023-04-01T12:33:59;6.88;;;6.25;;
52414;SDS011;38340;52.964;6.086;2023-04-01T12:44:41;7.55;;;6.85;;
52414;SDS011;38340;52.964;6.086;2023-04-01T12:49:53;7.20;;;6.50;;
52414;SDS011;38340;52.964;6.086;2023-04-01T13:04:23;7.88;;;6.72;;
52414;SDS011;38340;52.964;6.086;2023-04-01T13:12:29;6.32;;;5.82;;
52414;SDS011;38340;52.964;6.086;2023-04-01T13:15:34;6.05;;;5.53;;
52414;SDS011;38340;52.964;6.086;2023-04-01T13:18:13;6.70;;;5.47;;
52414;SDS011;38340;52.964;6.086;2023-04-01T13:29:18;6.75;;;6.15;;
52414;SDS011;38340;52.964;6.086;2023-04-01T13:34:56;6.00;;;5.50;;
52414;SDS011;38340;52.964;6.086;2023-04-01T13:37:36;6.55;;;5.95;;
52414;SDS011;38340;52.964;6.086;2023-04-01T13:43:34;6.47;;;5.60;;
52414;SDS011;38340;52.964;6.086;2023-04-01T13:46:10;6.70;;;5.72;;
52414;SDS011;38340;52.964;6.086;2023-04-01T13:49:00;6.22;;;5.72;;
52414;SDS011;38340;52.964;6.086;2023-04-01T13:56:50;5.80;;;5.30;;
52414;SDS011;38340;52.964;6.086;2023-04-01T14:00:29;6.32;;;5.82;;
52414;SDS011;38340;52.964;6.086;2023-04-01T14:08:14;6.18;;;5.55;;
52414;SDS011;38340;52.964;6.086;2023-04-01T14:13:47;5.85;;;5.35;;
52414;SDS011;38340;52.964;6.086;2023-04-01T14:39:33;5.55;;;5.05;;
52414;SDS011;38340;52.964;6.086;2023-04-01T14:42:31;5.85;;;4.90;;
52414;SDS011;38340;52.964;6.086;2023-04-01T14:56:48;5.85;;;4.72;;
52414;SDS011;38340;52.964;6.086;2023-04-01T14:59:33;4.93;;;4.43;;
52414;SDS011;38340;52.964;6.086;2023-04-01T15:02:18;5.43;;;4.93;;
52414;SDS011;38340;52.964;6.086;2023-04-01T15:04:58;6.57;;;5.88;;
52414;SDS011;38340;52.964;6.086;2023-04-01T15:18:34;5.28;;;4.88;;
52414;SDS011;38340;52.964;6.086;2023-04-01T15:24:03;6.05;;;5.45;;
52414;SDS011;38340;52.964;6.086;2023-04-01T15:37:26;8.20;;;5.18;;
52414;SDS011;38340;52.964;6.086;2023-04-01T15:40:27;11.68;;;5.25;;
52414;SDS011;38340;52.964;6.086;2023-04-01T15:57:22;5.60;;;5.10;;
52414;SDS011;38340;52.964;6.086;2023-04-01T16:00:19;5.57;;;5.13;;
52414;SDS011;38340;52.964;6.086;2023-04-01T16:14:19;4.65;;;4.20;;
52414;SDS011;38340;52.964;6.086;2023-04-01T16:17:00;5.35;;;4.90;;
52414;SDS011;38340;52.964;6.086;2023-04-01T16:19:55;4.82;;;4.32;;
52414;SDS011;38340;52.964;6.086;2023-04-01T16:22:30;6.72;;;5.07;;
52414;SDS011;38340;52.964;6.086;2023-04-01T16:36:21;6.10;;;5.50;;
52414;SDS011;38340;52.964;6.086;2023-04-01T16:41:57;8.50;;;6.40;;
52414;SDS011;38340;52.964;6.086;2023-04-01T16:47:40;6.85;;;5.88;;
52414;SDS011;38340;52.964;6.086;2023-04-01T16:50:30;5.50;;;4.97;;
52414;SDS011;38340;52.964;6.086;2023-04-01T16:55:49;7.40;;;5.93;;
52414;SDS011;38340;52.964;6.086;2023-04-01T16:58:35;7.18;;;6.25;;
52414;SDS011;38340;52.964;6.086;2023-04-01T17:01:14;9.80;;;6.45;;
52414;SDS011;38340;52.964;6.086;2023-04-01T17:03:49;8.98;;;6.43;;
52414;SDS011;38340;52.964;6.086;2023-04-01T17:06:24;6.95;;;6.20;;
52414;SDS011;38340;52.964;6.086;2023-04-01T17:14:59;6.67;;;6.00;;
52414;SDS011;38340;52.964;6.086;2023-04-01T17:28:34;7.43;;;6.68;;
52414;SDS011;38340;52.964;6.086;2023-04-01T17:31:12;7.78;;;6.70;;
52414;SDS011;38340;52.964;6.086;2023-04-01T17:42:34;8.05;;;6.60;;
52414;SDS011;38340;52.964;6.086;2023-04-01T17:56:49;9.75;;;7.20;;
52414;SDS011;38340;52.964;6.086;2023-04-01T18:04:53;7.88;;;7.03;;
52414;SDS011;38340;52.964;6.086;2023-04-01T18:10:25;10.70;;;6.60;;
52414;SDS011;38340;52.964;6.086;2023-04-01T18:13:20;7.75;;;6.45;;
52414;SDS011;38340;52.964;6.086;2023-04-01T18:16:18;7.65;;;6.68;;
52414;SDS011;38340;52.964;6.086;2023-04-01T18:24:10;10.68;;;7.95;;
52414;SDS011;38340;52.964;6.086;2023-04-01T18:26:44;13.60;;;8.00;;
52414;SDS011;38340;52.964;6.086;2023-04-01T18:32:24;10.52;;;7.55;;
52414;SDS011;38340;52.964;6.086;2023-04-01T18:35:02;8.02;;;7.15;;
52414;SDS011;38340;52.964;6.086;2023-04-01T18:37:53;10.85;;;7.45;;
52414;SDS011;38340;52.964;6.086;2023-04-01T18:40:35;10.65;;;7.80;;
52414;SDS011;38340;52.964;6.086;2023-04-01T18:43:13;9.35;;;7.80;;
52414;SDS011;38340;52.964;6.086;2023-04-01T18:46:12;11.50;;;7.45;;
52414;SDS011;38340;52.964;6.086;2023-04-01T18:54:19;10.90;;;7.00;;
52414;SDS011;38340;52.964;6.086;2023-04-01T18:56:51;8.30;;;7.15;;
52414;SDS011;38340;52.964;6.086;2023-04-01T18:59:45;8.98;;;7.43;;
52414;SDS011;38340;52.964;6.086;2023-04-01T19:02:36;9.00;;;7.05;;
52414;SDS011;38340;52.964;6.086;2023-04-01T19:05:12;9.20;;;7.22;;
52414;SDS011;38340;52.964;6.086;2023-04-01T19:08:34;8.90;;;7.13;;
52414;SDS011;38340;52.964;6.086;2023-04-01T19:18:37;8.63;;;7.60;;
52414;SDS011;38340;52.964;6.086;2023-04-01T19:21:42;10.32;;;8.13;;
52414;SDS011;38340;52.964;6.086;2023-04-01T19:24:25;11.07;;;7.97;;
52414;SDS011;38340;52.964;6.086;2023-04-01T19:37:50;11.55;;;8.55;;
52414;SDS011;38340;52.964;6.086;2023-04-01T19:54:01;12.68;;;8.70;;
52414;SDS011;38340;52.964;6.086;2023-04-01T19:59:27;12.30;;;8.40;;
52414;SDS011;38340;52.964;6.086;2023-04-01T20:01:59;11.85;;;9.27;;
52414;SDS011;38340;52.964;6.086;2023-04-01T20:09:58;13.57;;;9.20;;
52414;SDS011;38340;52.964;6.086;2023-04-01T20:18:02;12.88;;;9.00;;
52414;SDS011;38340;52.964;6.086;2023-04-01T20:20:32;13.48;;;10.00;;
52414;SDS011;38340;52.964;6.086;2023-04-01T20:25:59;14.52;;;8.77;;
52414;SDS011;38340;52.964;6.086;2023-04-01T20:28:36;18.35;;;9.82;;
52414;SDS011;38340;52.964;6.086;2023-04-01T20:37:09;13.10;;;9.68;;
52414;SDS011;38340;52.964;6.086;2023-04-01T20:46:16;13.93;;;9.40;;
52414;SDS011;38340;52.964;6.086;2023-04-01T20:48:37;13.02;;;10.00;;
52414;SDS011;38340;52.964;6.086;2023-04-01T20:51:32;15.13;;;8.77;;
52414;SDS011;38340;52.964;6.086;2023-04-01T20:59:53;14.88;;;9.88;;
52414;SDS011;38340;52.964;6.086;2023-04-01T21:08:15;10.80;;;8.63;;
52414;SDS011;38340;52.964;6.086;2023-04-01T21:13:52;15.13;;;8.55;;
52414;SDS011;38340;52.964;6.086;2023-04-01T21:17:01;9.10;;;7.30;;
52414;SDS011;38340;52.964;6.086;2023-04-01T21:19:54;12.43;;;9.20;;
52414;SDS011;38340;52.964;6.086;2023-04-01T22:04:03;9.52;;;7.32;;
52414;SDS011;38340;52.964;6.086;2023-04-01T22:09:29;12.30;;;7.55;;
52414;SDS011;38340;52.964;6.086;2023-04-01T22:26:14;10.88;;;7.30;;
52414;SDS011;38340;52.964;6.086;2023-04-01T22:28:55;12.52;;;7.35;;
52414;SDS011;38340;52.964;6.086;2023-04-01T22:34:31;11.25;;;7.78;;
52414;SDS011;38340;52.964;6.086;2023-04-01T22:42:45;11.02;;;7.28;;
52414;SDS011;38340;52.964;6.086;2023-04-01T22:48:09;9.60;;;7.25;;
52414;SDS011;38340;52.964;6.086;2023-04-01T22:50:57;12.07;;;8.17;;
52414;SDS011;38340;52.964;6.086;2023-04-01T22:53:43;12.15;;;7.85;;
52414;SDS011;38340;52.964;6.086;2023-04-01T22:56:27;12.48;;;7.97;;
52414;SDS011;38340;52.964;6.086;2023-04-01T22:59:13;12.35;;;7.88;;
52414;SDS011;38340;52.964;6.086;2023-04-01T23:01:47;12.40;;;7.80;;
52414;SDS011;38340;52.964;6.086;2023-04-01T23:04:37;9.73;;;7.43;;
52414;SDS011;38340;52.964;6.086;2023-04-01T23:09:50;12.18;;;7.43;;
52414;SDS011;38340;52.964;6.086;2023-04-01T23:12:16;12.63;;;7.82;;
52414;SDS011;38340;52.964;6.086;2023-04-01T23:14:47;12.88;;;6.63;;
52414;SDS011;38340;52.964;6.086;2023-04-01T23:19:59;11.57;;;6.50;;
52414;SDS011;38340;52.964;6.086;2023-04-01T23:28:23;8.35;;;6.60;;
52414;SDS011;38340;52.964;6.086;2023-04-01T23:30:50;8.70;;;6.05;;
52414;SDS011;38340;52.964;6.086;2023-04-01T23:33:27;8.43;;;6.65;;
52414;SDS011;38340;52.964;6.086;2023-04-01T23:38:37;9.50;;;6.55;;
52414;SDS011;38340;52.964;6.086;2023-04-01T23:41:06;9.77;;;6.47;;
52414;SDS011;38340;52.964;6.086;2023-04-01T23:43:40;10.73;;;7.00;;
52414;SDS011;38340;52.964;6.086;2023-04-01T23:46:08;10.88;;;6.47;;
52414;SDS011;38340;52.964;6.086;2023-04-01T23:48:41;9.45;;;6.53;;
52414;SDS011;38340;52.964;6.086;2023-04-01T23:54:10;10.68;;;6.88;;
52414;SDS011;38340;52.964;6.086;2023-04-01T23:56:51;7.57;;;6.22;;
52414;SDS011;38340;52.964;6.086;2023-04-01T23:59:38;9.00;;;6.65;;
